PWSweather.com
Personal Weather Stations
Station Observations
MACKBIG
Historic Main Street, Unionville, ON L3R6A5

Historic Main StreetUnionville, ON L3R6A5

Lat: 43.875506, Lon: -79.312903

Elevation: 590

Station Type: Davis VP2 + 6163

http://www.mackweather.com

High Low Average
Temperature 31.1°F-0.5°C 17.6°F-8.0°C 25.3°F-3.7°C
Dew Point 28.4°F-2.0°C 10.4°F-12.0°C 17.8°F-7.9°C
Winds 14.0 mph 22.5 kmh 3.0 mph 4.8 kmh 8.0 mph NW12.9 kmh NW
Wind Gusts 29.0 mph46.7 kmh 5.0 mph8.0 kmh 15.0 mph24.1 kmh
Humidity 91% 65% 73%
Pressure 30.23 in1023.7 mb 29.88 in1011.9 mb -
Precipitation 0.00 in0.0 mm - -
Hour Temp Dew Point Humidity Winds Wind Gusts Pressure Precip Precip Rate Daily Precip Total
08:10 AM 29.9°F-1.2°C 27.6°F-2.4°C 91% 3.0 mph W4.8 kmh W 5.0 mph8.0 kmh 29.88 in1011.9 mb - 0.00 in0.0 mm 0.00 in0.0 mm
08:20 AM 30.0°F-1.1°C 27.7°F-2.4°C 91% 6.0 mph W9.7 kmh W 10.0 mph16.1 kmh 29.89 in1012.2 mb - 0.00 in0.0 mm 0.00 in0.0 mm
08:30 AM 30.1°F-1.1°C 27.8°F-2.3°C 91% 5.0 mph WSW8.0 kmh WSW 12.0 mph19.3 kmh 29.89 in1012.2 mb - 0.00 in0.0 mm 0.00 in0.0 mm
08:40 AM 30.2°F-1.0°C 27.9°F-2.3°C 91% 5.0 mph W8.0 kmh W 6.0 mph9.7 kmh 29.90 in1012.5 mb - 0.00 in0.0 mm 0.00 in0.0 mm
08:50 AM 30.5°F-0.8°C 28.2°F-2.1°C 91% 5.0 mph WNW8.0 kmh WNW 14.0 mph22.5 kmh 29.91 in1012.9 mb - 0.00 in0.0 mm 0.00 in0.0 mm
09:00 AM 30.7°F-0.7°C 28.4°F-2.0°C 91% 5.0 mph NW8.0 kmh NW 7.0 mph11.3 kmh 29.91 in1012.9 mb - 0.00 in0.0 mm 0.00 in0.0 mm
09:10 AM 30.7°F-0.7°C 28.1°F-2.2°C 90% 6.0 mph WNW9.7 kmh WNW 8.0 mph12.9 kmh 29.92 in1013.2 mb - 0.00 in0.0 mm 0.00 in0.0 mm
09:20 AM 30.5°F-0.8°C 27.6°F-2.4°C 89% 8.0 mph W12.9 kmh W 14.0 mph22.5 kmh 29.93 in1013.5 mb - 0.00 in0.0 mm 0.00 in0.0 mm
09:30 AM 30.7°F-0.7°C 27.3°F-2.6°C 87% 8.0 mph NW12.9 kmh NW 16.0 mph25.7 kmh 29.93 in1013.5 mb - 0.00 in0.0 mm 0.00 in0.0 mm
09:40 AM 31.1°F-0.5°C 26.8°F-2.9°C 84% 7.0 mph WNW11.3 kmh WNW 16.0 mph25.7 kmh 29.95 in1014.2 mb - 0.00 in0.0 mm 0.00 in0.0 mm
09:50 AM 31.1°F-0.5°C 26.0°F-3.3°C 81% 10.0 mph NW16.1 kmh NW 20.0 mph32.2 kmh 29.95 in1014.2 mb - 0.00 in0.0 mm 0.00 in0.0 mm
10:00 AM 30.4°F-0.9°C 24.4°F-4.2°C 78% 9.0 mph W14.5 kmh W 14.0 mph22.5 kmh 29.96 in1014.6 mb - 0.00 in0.0 mm 0.00 in0.0 mm
10:10 AM 30.0°F-1.1°C 23.3°F-4.8°C 76% 8.0 mph NW12.9 kmh NW 20.0 mph32.2 kmh 29.97 in1014.9 mb - 0.00 in0.0 mm 0.00 in0.0 mm
10:20 AM 30.2°F-1.0°C 23.6°F-4.7°C 76% 7.0 mph NW11.3 kmh NW 22.0 mph35.4 kmh 29.98 in1015.2 mb - 0.00 in0.0 mm 0.00 in0.0 mm
10:30 AM 29.9°F-1.2°C 22.3°F-5.4°C 73% 13.0 mph WNW20.9 kmh WNW 24.0 mph38.6 kmh 29.99 in1015.6 mb - 0.00 in0.0 mm 0.00 in0.0 mm
10:40 AM 28.8°F-1.8°C 20.2°F-6.6°C 70% 12.0 mph WNW19.3 kmh WNW 20.0 mph32.2 kmh 30.01 in1016.3 mb - 0.00 in0.0 mm 0.00 in0.0 mm
10:50 AM 28.7°F-1.8°C 19.8°F-6.8°C 69% 10.0 mph WNW16.1 kmh WNW 20.0 mph32.2 kmh 30.02 in1016.6 mb - 0.00 in0.0 mm 0.00 in0.0 mm
11:00 AM 28.9°F-1.7°C 19.3°F-7.1°C 67% 9.0 mph WNW14.5 kmh WNW 16.0 mph25.7 kmh 30.02 in1016.6 mb - 0.00 in0.0 mm 0.00 in0.0 mm
11:10 AM 29.2°F-1.6°C 19.6°F-6.9°C 67% 8.0 mph NW12.9 kmh NW 13.0 mph20.9 kmh 30.02 in1016.6 mb - 0.00 in0.0 mm 0.00 in0.0 mm
11:20 AM 28.5°F-1.9°C 19.3°F-7.1°C 68% 12.0 mph NW19.3 kmh NW 16.0 mph25.7 kmh 30.02 in1016.6 mb - 0.00 in0.0 mm 0.00 in0.0 mm
11:30 AM 27.6°F-2.4°C 18.8°F-7.3°C 69% 6.0 mph NW9.7 kmh NW 12.0 mph19.3 kmh 30.03 in1016.9 mb - 0.00 in0.0 mm 0.00 in0.0 mm
11:40 AM 27.4°F-2.6°C 18.9°F-7.3°C 70% 7.0 mph NW11.3 kmh NW 13.0 mph20.9 kmh 30.02 in1016.6 mb - 0.00 in0.0 mm 0.00 in0.0 mm
11:50 AM 27.8°F-2.3°C 18.3°F-7.6°C 67% 13.0 mph NW20.9 kmh NW 21.0 mph33.8 kmh 30.03 in1016.9 mb - 0.00 in0.0 mm 0.00 in0.0 mm
12:00 PM 27.3°F-2.6°C 17.4°F-8.1°C 66% 10.0 mph WNW16.1 kmh WNW 16.0 mph25.7 kmh 30.03 in1016.9 mb - 0.00 in0.0 mm 0.00 in0.0 mm
12:10 PM 28.2°F-2.1°C 18.7°F-7.4°C 67% 9.0 mph NW14.5 kmh NW 13.0 mph20.9 kmh 30.04 in1017.3 mb - 0.00 in0.0 mm 0.00 in0.0 mm
12:20 PM 28.8°F-1.8°C 18.9°F-7.3°C 66% 13.0 mph WNW20.9 kmh WNW 20.0 mph32.2 kmh 30.05 in1017.6 mb - 0.00 in0.0 mm 0.00 in0.0 mm
12:30 PM 27.2°F-2.7°C 18.1°F-7.7°C 68% 7.0 mph N11.3 kmh N 12.0 mph19.3 kmh 30.06 in1017.9 mb - 0.00 in0.0 mm 0.00 in0.0 mm
12:40 PM 25.4°F-3.7°C 17.7°F-7.9°C 72% 8.0 mph N12.9 kmh N 18.0 mph29.0 kmh 30.06 in1017.9 mb - 0.00 in0.0 mm 0.00 in0.0 mm
12:50 PM 24.0°F-4.4°C 16.6°F-8.6°C 73% 13.0 mph NW20.9 kmh NW 28.0 mph45.1 kmh 30.07 in1018.3 mb - 0.00 in0.0 mm 0.00 in0.0 mm
01:00 PM 23.6°F-4.7°C 15.9°F-8.9°C 72% 9.0 mph WNW14.5 kmh WNW 29.0 mph46.7 kmh 30.07 in1018.3 mb - 0.00 in0.0 mm 0.00 in0.0 mm
01:10 PM 23.5°F-4.7°C 15.1°F-9.4°C 70% 10.0 mph NW16.1 kmh NW 13.0 mph20.9 kmh 30.08 in1018.6 mb - 0.00 in0.0 mm 0.00 in0.0 mm
01:20 PM 23.6°F-4.7°C 14.6°F-9.7°C 68% 6.0 mph W9.7 kmh W 13.0 mph20.9 kmh 30.08 in1018.6 mb - 0.00 in0.0 mm 0.00 in0.0 mm
01:30 PM 23.8°F-4.6°C 14.1°F-9.9°C 66% 8.0 mph N12.9 kmh N 15.0 mph24.1 kmh 30.09 in1019.0 mb - 0.00 in0.0 mm 0.00 in0.0 mm
01:40 PM 23.4°F-4.8°C 13.7°F-10.2°C 66% 9.0 mph NW14.5 kmh NW 14.0 mph22.5 kmh 30.09 in1019.0 mb - 0.00 in0.0 mm 0.00 in0.0 mm
01:50 PM 23.2°F-4.9°C 13.5°F-10.3°C 66% 8.0 mph NNW12.9 kmh NNW 14.0 mph22.5 kmh 30.10 in1019.3 mb - 0.00 in0.0 mm 0.00 in0.0 mm
02:00 PM 23.4°F-4.8°C 13.7°F-10.2°C 66% 8.0 mph NW12.9 kmh NW 18.0 mph29.0 kmh 30.11 in1019.6 mb - 0.00 in0.0 mm 0.00 in0.0 mm
02:10 PM 23.3°F-4.8°C 13.6°F-10.2°C 66% 9.0 mph NW14.5 kmh NW 21.0 mph33.8 kmh 30.12 in1020.0 mb - 0.00 in0.0 mm 0.00 in0.0 mm
02:20 PM 22.2°F-5.4°C 12.3°F-10.9°C 65% 14.0 mph NW22.5 kmh NW 16.0 mph25.7 kmh 30.12 in1020.0 mb - 0.00 in0.0 mm 0.00 in0.0 mm
02:30 PM 21.5°F-5.8°C 12.2°F-11.0°C 67% 8.0 mph WNW12.9 kmh WNW 12.0 mph19.3 kmh 30.12 in1020.0 mb - 0.00 in0.0 mm 0.00 in0.0 mm
02:40 PM 21.6°F-5.8°C 12.0°F-11.1°C 66% 6.0 mph NW9.7 kmh NW 18.0 mph29.0 kmh 30.13 in1020.3 mb - 0.00 in0.0 mm 0.00 in0.0 mm
02:50 PM 21.5°F-5.8°C 11.9°F-11.2°C 66% 6.0 mph NW9.7 kmh NW 12.0 mph19.3 kmh 30.14 in1020.7 mb - 0.00 in0.0 mm 0.00 in0.0 mm
03:00 PM 21.0°F-6.1°C 11.4°F-11.4°C 66% 9.0 mph NW14.5 kmh NW 16.0 mph25.7 kmh 30.14 in1020.7 mb - 0.00 in0.0 mm 0.00 in0.0 mm
03:10 PM 20.2°F-6.6°C 10.9°F-11.7°C 67% 10.0 mph NW16.1 kmh NW 15.0 mph24.1 kmh 30.15 in1021.0 mb - 0.00 in0.0 mm 0.00 in0.0 mm
03:20 PM 19.6°F-6.9°C 10.4°F-12.0°C 67% 5.0 mph NW8.0 kmh NW 8.0 mph12.9 kmh 30.16 in1021.3 mb - 0.00 in0.0 mm 0.00 in0.0 mm
03:30 PM 19.5°F-6.9°C 10.7°F-11.8°C 68% 7.0 mph NW11.3 kmh NW 14.0 mph22.5 kmh 30.16 in1021.3 mb - 0.00 in0.0 mm 0.00 in0.0 mm
03:40 PM 19.4°F-7.0°C 10.9°F-11.7°C 69% 6.0 mph NW9.7 kmh NW 15.0 mph24.1 kmh 30.17 in1021.7 mb - 0.00 in0.0 mm 0.00 in0.0 mm
03:50 PM 19.1°F-7.2°C 10.6°F-11.9°C 69% 12.0 mph NW19.3 kmh NW 21.0 mph33.8 kmh 30.18 in1022.0 mb - 0.00 in0.0 mm 0.00 in0.0 mm
04:00 PM 18.9°F-7.3°C 10.4°F-12.0°C 69% 6.0 mph NW9.7 kmh NW 14.0 mph22.5 kmh 30.18 in1022.0 mb - 0.00 in0.0 mm 0.00 in0.0 mm
04:10 PM 18.6°F-7.4°C 10.5°F-11.9°C 70% 6.0 mph WNW9.7 kmh WNW 9.0 mph14.5 kmh 30.19 in1022.4 mb - 0.00 in0.0 mm 0.00 in0.0 mm
04:20 PM 18.5°F-7.5°C 12.2°F-11.0°C 76% 8.0 mph NW12.9 kmh NW 15.0 mph24.1 kmh 30.20 in1022.7 mb - 0.00 in0.0 mm 0.00 in0.0 mm
04:30 PM 18.2°F-7.7°C 10.4°F-12.0°C 71% 8.0 mph NNW12.9 kmh NNW 13.0 mph20.9 kmh 30.20 in1022.7 mb - 0.00 in0.0 mm 0.00 in0.0 mm
04:40 PM 17.9°F-7.8°C 10.4°F-12.0°C 72% 5.0 mph WNW8.0 kmh WNW 9.0 mph14.5 kmh 30.21 in1023.0 mb - 0.00 in0.0 mm 0.00 in0.0 mm
04:50 PM 17.7°F-7.9°C 10.5°F-11.9°C 73% 5.0 mph NNW8.0 kmh NNW 7.0 mph11.3 kmh 30.22 in1023.4 mb - 0.00 in0.0 mm 0.00 in0.0 mm
05:00 PM 17.6°F-8.0°C 10.4°F-12.0°C 73% 3.0 mph NW4.8 kmh NW 7.0 mph11.3 kmh 30.23 in1023.7 mb - 0.00 in0.0 mm 0.00 in0.0 mm